sensor_id;sensor_type;location;lat;lon;timestamp;pressure;altitude;pressure_sealevel;temperature;humidity
63739;BME280;68816;45.558;10.070;2023-07-13T00:01:31;99572.94;;;25.06;65.68
63739;BME280;68816;45.558;10.070;2023-07-13T00:03:57;99560.75;;;24.84;64.02
63739;BME280;68816;45.558;10.070;2023-07-13T00:06:23;99539.88;;;24.98;62.80
63739;BME280;68816;45.558;10.070;2023-07-13T00:08:49;99541.41;;;24.95;63.99
63739;BME280;68816;45.558;10.070;2023-07-13T00:11:16;99527.13;;;24.83;64.31
63739;BME280;68816;45.558;10.070;2023-07-13T00:13:42;99517.94;;;24.94;65.31
63739;BME280;68816;45.558;10.070;2023-07-13T00:16:10;99527.28;;;24.86;64.47
63739;BME280;68816;45.558;10.070;2023-07-13T00:18:36;99536.22;;;24.97;64.60
63739;BME280;68816;45.558;10.070;2023-07-13T00:21:03;99539.88;;;24.98;65.05
63739;BME280;68816;45.558;10.070;2023-07-13T00:23:36;99545.25;;;24.90;65.44
63739;BME280;68816;45.558;10.070;2023-07-13T00:26:07;99554.75;;;24.86;66.09
63739;BME280;68816;45.558;10.070;2023-07-13T00:28:34;99557.22;;;24.87;65.68
63739;BME280;68816;45.558;10.070;2023-07-13T00:31:00;99558.50;;;24.99;65.85
63739;BME280;68816;45.558;10.070;2023-07-13T00:33:28;99564.84;;;25.16;66.28
63739;BME280;68816;45.558;10.070;2023-07-13T00:35:54;99571.34;;;24.96;65.00
63739;BME280;68816;45.558;10.070;2023-07-13T00:38:20;99585.63;;;25.00;61.76
63739;BME280;68816;45.558;10.070;2023-07-13T00:40:45;99580.03;;;25.12;60.48
63739;BME280;68816;45.558;10.070;2023-07-13T00:43:18;99587.50;;;24.87;61.66
63739;BME280;68816;45.558;10.070;2023-07-13T00:48:15;99588.72;;;24.77;63.79
63739;BME280;68816;45.558;10.070;2023-07-13T00:50:44;99590.69;;;24.85;65.42
63739;BME280;68816;45.558;10.070;2023-07-13T00:53:11;99592.41;;;24.78;65.33
63739;BME280;68816;45.558;10.070;2023-07-13T00:55:37;99592.34;;;24.57;64.89
63739;BME280;68816;45.558;10.070;2023-07-13T00:58:04;99606.28;;;24.62;65.51
63739;BME280;68816;45.558;10.070;2023-07-13T01:00:34;99615.56;;;24.33;66.13
63739;BME280;68816;45.558;10.070;2023-07-13T01:03:02;99615.59;;;24.07;68.23
63739;BME280;68816;45.558;10.070;2023-07-13T01:05:30;99612.50;;;24.47;67.38
63739;BME280;68816;45.558;10.070;2023-07-13T01:07:57;99621.97;;;24.51;66.76
63739;BME280;68816;45.558;10.070;2023-07-13T01:10:24;99620.13;;;24.55;67.03
63739;BME280;68816;45.558;10.070;2023-07-13T01:12:51;99629.44;;;23.92;68.35
63739;BME280;68816;45.558;10.070;2023-07-13T01:15:37;99625.97;;;23.86;68.98
63739;BME280;68816;45.558;10.070;2023-07-13T01:18:04;99637.59;;;23.50;70.26
63739;BME280;68816;45.558;10.070;2023-07-13T01:20:31;99624.97;;;23.65;70.47
63739;BME280;68816;45.558;10.070;2023-07-13T01:23:05;99640.25;;;23.55;70.86
63739;BME280;68816;45.558;10.070;2023-07-13T01:25:31;99627.97;;;23.51;70.99
63739;BME280;68816;45.558;10.070;2023-07-13T01:27:57;99631.81;;;23.47;71.23
63739;BME280;68816;45.558;10.070;2023-07-13T01:30:23;99642.38;;;23.32;72.09
63739;BME280;68816;45.558;10.070;2023-07-13T01:32:49;99642.72;;;23.40;71.63
63739;BME280;68816;45.558;10.070;2023-07-13T01:35:14;99654.69;;;23.54;71.71
63739;BME280;68816;45.558;10.070;2023-07-13T01:37:42;99652.31;;;23.21;72.05
63739;BME280;68816;45.558;10.070;2023-07-13T01:40:10;99650.88;;;23.50;71.16
63739;BME280;68816;45.558;10.070;2023-07-13T01:42:37;99658.69;;;23.79;71.50
63739;BME280;68816;45.558;10.070;2023-07-13T01:45:03;99650.88;;;23.50;71.34
63739;BME280;68816;45.558;10.070;2023-07-13T01:47:29;99657.47;;;23.28;71.67
63739;BME280;68816;45.558;10.070;2023-07-13T01:49:57;99664.28;;;23.35;71.72
63739;BME280;68816;45.558;10.070;2023-07-13T01:52:23;99660.13;;;23.42;71.45
63739;BME280;68816;45.558;10.070;2023-07-13T01:54:48;99643.88;;;23.39;70.79
63739;BME280;68816;45.558;10.070;2023-07-13T01:57:14;99660.69;;;23.61;70.46
63739;BME280;68816;45.558;10.070;2023-07-13T01:59:40;99669.16;;;23.52;70.19
63739;BME280;68816;45.558;10.070;2023-07-13T02:02:06;99660.69;;;23.61;69.89
63739;BME280;68816;45.558;10.070;2023-07-13T02:04:31;99662.84;;;23.47;70.93
63739;BME280;68816;45.558;10.070;2023-07-13T02:06:57;99659.53;;;23.62;70.39
63739;BME280;68816;45.558;10.070;2023-07-13T02:09:22;99663.69;;;23.64;70.73
63739;BME280;68816;45.558;10.070;2023-07-13T02:11:49;99658.84;;;23.91;70.03
63739;BME280;68816;45.558;10.070;2023-07-13T02:14:15;99659.53;;;23.88;69.47
63739;BME280;68816;45.558;10.070;2023-07-13T02:16:41;99662.16;;;23.84;69.33
63739;BME280;68816;45.558;10.070;2023-07-13T02:19:07;99662.50;;;23.91;69.53
63739;BME280;68816;45.558;10.070;2023-07-13T02:21:33;99659.53;;;23.88;69.41
63739;BME280;68816;45.558;10.070;2023-07-13T02:23:59;99655.69;;;23.92;69.08
63739;BME280;68816;45.558;10.070;2023-07-13T02:26:26;99662.81;;;23.90;69.51
63739;BME280;68816;45.558;10.070;2023-07-13T02:28:51;99659.69;;;23.74;69.08
63739;BME280;68816;45.558;10.070;2023-07-13T02:31:17;99669.13;;;23.95;68.59
63739;BME280;68816;45.558;10.070;2023-07-13T02:33:43;99665.25;;;24.17;69.41
63739;BME280;68816;45.558;10.070;2023-07-13T02:36:09;99672.59;;;24.27;69.72
63739;BME280;68816;45.558;10.070;2023-07-13T02:38:36;99688.34;;;24.45;69.61
63739;BME280;68816;45.558;10.070;2023-07-13T02:41:03;99684.38;;;24.29;69.31
63739;BME280;68816;45.558;10.070;2023-07-13T02:43:29;99696.34;;;24.43;68.81
63739;BME280;68816;45.558;10.070;2023-07-13T02:45:55;99699.94;;;24.61;67.97
63739;BME280;68816;45.558;10.070;2023-07-13T02:48:20;99693.50;;;24.43;70.55
63739;BME280;68816;45.558;10.070;2023-07-13T02:50:46;99689.84;;;24.51;68.94
63739;BME280;68816;45.558;10.070;2023-07-13T02:53:12;99684.19;;;24.51;68.50
63739;BME280;68816;45.558;10.070;2023-07-13T02:55:37;99677.28;;;24.23;68.75
63739;BME280;68816;45.558;10.070;2023-07-13T02:58:03;99679.69;;;24.41;69.25
63739;BME280;68816;45.558;10.070;2023-07-13T03:00:29;99702.50;;;24.45;68.65
63739;BME280;68816;45.558;10.070;2023-07-13T03:02:54;99694.34;;;24.43;68.87
63739;BME280;68816;45.558;10.070;2023-07-13T03:05:23;99703.63;;;24.52;68.19
63739;BME280;68816;45.558;10.070;2023-07-13T03:07:49;99696.78;;;24.62;68.61
63739;BME280;68816;45.558;10.070;2023-07-13T03:10:15;99695.63;;;24.54;67.96
63739;BME280;68816;45.558;10.070;2023-07-13T03:12:41;99685.81;;;24.52;68.60
63739;BME280;68816;45.558;10.070;2023-07-13T03:15:07;99693.63;;;24.55;69.57
63739;BME280;68816;45.558;10.070;2023-07-13T03:17:33;99684.47;;;24.58;69.37
63739;BME280;68816;45.558;10.070;2023-07-13T03:19:59;99689.47;;;24.61;69.47
63739;BME280;68816;45.558;10.070;2023-07-13T03:22:24;99688.16;;;24.50;69.86
63739;BME280;68816;45.558;10.070;2023-07-13T03:24:50;99694.81;;;24.54;70.13
63739;BME280;68816;45.558;10.070;2023-07-13T03:27:17;99686.81;;;24.56;69.30
63739;BME280;68816;45.558;10.070;2023-07-13T03:29:42;99686.50;;;24.58;69.58
63739;BME280;68816;45.558;10.070;2023-07-13T03:32:08;99684.00;;;24.56;69.29
63739;BME280;68816;45.558;10.070;2023-07-13T03:34:34;99676.34;;;24.57;68.98
63739;BME280;68816;45.558;10.070;2023-07-13T03:36:59;99681.16;;;24.56;69.21
63739;BME280;68816;45.558;10.070;2023-07-13T03:39:25;99681.81;;;24.53;69.22
63739;BME280;68816;45.558;10.070;2023-07-13T03:41:52;99687.00;;;24.51;69.38
63739;BME280;68816;45.558;10.070;2023-07-13T03:44:18;99687.97;;;24.55;68.80
63739;BME280;68816;45.558;10.070;2023-07-13T03:46:44;99687.66;;;24.48;69.39
63739;BME280;68816;45.558;10.070;2023-07-13T03:49:10;99692.69;;;24.42;69.61
63739;BME280;68816;45.558;10.070;2023-07-13T03:51:36;99695.16;;;24.44;69.40
63739;BME280;68816;45.558;10.070;2023-07-13T03:54:02;99695.81;;;24.49;68.98
63739;BME280;68816;45.558;10.070;2023-07-13T03:56:29;99688.16;;;24.50;68.87
63739;BME280;68816;45.558;10.070;2023-07-13T03:58:56;99682.19;;;24.43;69.28
63739;BME280;68816;45.558;10.070;2023-07-13T04:01:23;99689.72;;;24.30;69.44
63739;BME280;68816;45.558;10.070;2023-07-13T04:03:50;99689.88;;;24.34;68.92
63739;BME280;68816;45.558;10.070;2023-07-13T04:06:19;99687.53;;;24.36;68.43
63739;BME280;68816;45.558;10.070;2023-07-13T04:08:48;99676.91;;;24.33;67.37
63739;BME280;68816;45.558;10.070;2023-07-13T04:11:16;99687.06;;;24.17;69.32
63739;BME280;68816;45.558;10.070;2023-07-13T04:13:41;99682.75;;;24.19;68.33
63739;BME280;68816;45.558;10.070;2023-07-13T04:16:07;99691.22;;;24.28;68.97
63739;BME280;68816;45.558;10.070;2023-07-13T04:18:32;99694.19;;;24.40;68.12
63739;BME280;68816;45.558;10.070;2023-07-13T04:20:58;99680.66;;;24.54;66.97
63739;BME280;68816;45.558;10.070;2023-07-13T04:23:24;99692.28;;;24.61;nan
63739;BME280;68816;45.558;10.070;2023-07-13T04:25:52;99702.91;;;24.64;66.91
63739;BME280;68816;45.558;10.070;2023-07-13T04:28:23;99714.72;;;24.66;65.69
63739;BME280;68816;45.558;10.070;2023-07-13T04:30:49;99714.22;;;24.64;64.81
63739;BME280;68816;45.558;10.070;2023-07-13T04:33:16;99706.69;;;24.77;65.30
63739;BME280;68816;45.558;10.070;2023-07-13T04:35:49;99703.34;;;24.83;64.98
63739;BME280;68816;45.558;10.070;2023-07-13T04:38:15;99702.03;;;24.89;64.05
63739;BME280;68816;45.558;10.070;2023-07-13T04:40:44;99705.34;;;24.91;65.44
63739;BME280;68816;45.558;10.070;2023-07-13T04:43:10;99706.19;;;24.92;65.65
63739;BME280;68816;45.558;10.070;2023-07-13T04:45:36;99712.69;;;24.92;66.11
63739;BME280;68816;45.558;10.070;2023-07-13T04:48:02;99717.84;;;24.90;66.36
63739;BME280;68816;45.558;10.070;2023-07-13T04:50:27;99729.31;;;24.85;66.04
63739;BME280;68816;45.558;10.070;2023-07-13T04:52:53;99713.34;;;24.89;65.35
63739;BME280;68816;45.558;10.070;2023-07-13T04:55:19;99722.47;;;24.95;66.79
63739;BME280;68816;45.558;10.070;2023-07-13T04:57:45;99713.63;;;24.97;65.95
63739;BME280;68816;45.558;10.070;2023-07-13T05:00:12;99720.56;;;25.08;66.30
63739;BME280;68816;45.558;10.070;2023-07-13T05:02:38;99719.22;;;25.14;66.50
63739;BME280;68816;45.558;10.070;2023-07-13T05:05:05;99726.34;;;25.20;65.28
63739;BME280;68816;45.558;10.070;2023-07-13T05:07:31;99713.56;;;25.14;64.15
63739;BME280;68816;45.558;10.070;2023-07-13T05:09:59;99715.66;;;25.25;63.91
63739;BME280;68816;45.558;10.070;2023-07-13T05:12:26;99715.03;;;25.20;63.09
63739;BME280;68816;45.558;10.070;2023-07-13T05:14:51;99714.41;;;25.35;64.55
63739;BME280;68816;45.558;10.070;2023-07-13T05:17:17;99712.19;;;25.49;64.14
63739;BME280;68816;45.558;10.070;2023-07-13T05:19:43;99701.28;;;25.60;63.61
63739;BME280;68816;45.558;10.070;2023-07-13T05:22:09;99706.84;;;25.56;64.49
63739;BME280;68816;45.558;10.070;2023-07-13T05:24:34;99716.47;;;25.55;63.82
63739;BME280;68816;45.558;10.070;2023-07-13T05:27:00;99715.97;;;25.53;63.66
63739;BME280;68816;45.558;10.070;2023-07-13T05:29:25;99721.22;;;25.43;63.22
63739;BME280;68816;45.558;10.070;2023-07-13T05:31:51;99718.25;;;25.39;62.69
63739;BME280;68816;45.558;10.070;2023-07-13T05:34:17;99734.25;;;25.35;61.53
63739;BME280;68816;45.558;10.070;2023-07-13T05:36:42;99744.19;;;25.41;61.70
63739;BME280;68816;45.558;10.070;2023-07-13T05:39:08;99747.19;;;25.45;62.02
63739;BME280;68816;45.558;10.070;2023-07-13T05:41:35;99741.75;;;25.31;61.91
63739;BME280;68816;45.558;10.070;2023-07-13T05:44:00;99731.75;;;25.33;61.11
63739;BME280;68816;45.558;10.070;2023-07-13T05:46:26;99725.22;;;25.42;61.80
63739;BME280;68816;45.558;10.070;2023-07-13T05:48:52;99723.13;;;25.59;60.77
63739;BME280;68816;45.558;10.070;2023-07-13T05:51:17;99716.59;;;25.67;60.91
63739;BME280;68816;45.558;10.070;2023-07-13T05:53:43;99725.19;;;25.71;61.25
63739;BME280;68816;45.558;10.070;2023-07-13T05:56:09;99730.19;;;25.74;61.98
63739;BME280;68816;45.558;10.070;2023-07-13T05:58:34;99736.28;;;25.55;61.66
63739;BME280;68816;45.558;10.070;2023-07-13T06:01:05;99741.97;;;25.55;61.06
63739;BME280;68816;45.558;10.070;2023-07-13T06:03:32;99750.66;;;25.50;60.96
63739;BME280;68816;45.558;10.070;2023-07-13T06:05:58;99750.44;;;25.55;61.88
63739;BME280;68816;45.558;10.070;2023-07-13T06:08:26;99754.63;;;25.58;61.16
63739;BME280;68816;45.558;10.070;2023-07-13T06:10:52;99754.44;;;25.54;61.27
63739;BME280;68816;45.558;10.070;2023-07-13T06:13:18;99763.03;;;25.37;61.56
63739;BME280;68816;45.558;10.070;2023-07-13T06:15:48;99757.59;;;25.32;61.62
63739;BME280;68816;45.558;10.070;2023-07-13T06:18:15;99764.28;;;25.27;62.41
63739;BME280;68816;45.558;10.070;2023-07-13T06:20:40;99762.28;;;25.57;60.62
63739;BME280;68816;45.558;10.070;2023-07-13T06:23:06;99766.56;;;25.63;61.39
63739;BME280;68816;45.558;10.070;2023-07-13T06:25:31;99755.25;;;25.63;61.39
63739;BME280;68816;45.558;10.070;2023-07-13T06:27:57;99749.44;;;25.51;63.37
63739;BME280;68816;45.558;10.070;2023-07-13T06:30:22;99764.13;;;25.53;63.37
63739;BME280;68816;45.558;10.070;2023-07-13T06:32:48;99767.94;;;25.57;62.28
63739;BME280;68816;45.558;10.070;2023-07-13T06:35:14;99761.75;;;25.64;62.58
63739;BME280;68816;45.558;10.070;2023-07-13T06:37:39;99783.44;;;25.51;64.40
63739;BME280;68816;45.558;10.070;2023-07-13T06:40:05;99785.75;;;25.58;61.44
63739;BME280;68816;45.558;10.070;2023-07-13T06:42:31;99784.69;;;25.71;60.75
63739;BME280;68816;45.558;10.070;2023-07-13T06:44:57;99776.69;;;25.73;59.11
63739;BME280;68816;45.558;10.070;2023-07-13T06:47:22;99803.72;;;25.91;58.97
63739;BME280;68816;45.558;10.070;2023-07-13T06:49:48;99808.69;;;25.94;60.01
63739;BME280;68816;45.558;10.070;2023-07-13T06:52:14;99803.91;;;25.86;61.32
63739;BME280;68816;45.558;10.070;2023-07-13T06:54:39;99802.69;;;25.96;58.49
63739;BME280;68816;45.558;10.070;2023-07-13T06:57:05;99782.72;;;26.13;56.18
63739;BME280;68816;45.558;10.070;2023-07-13T06:59:30;99786.66;;;26.41;59.95
63739;BME280;68816;45.558;10.070;2023-07-13T07:01:56;99788.31;;;26.42;57.38
63739;BME280;68816;45.558;10.070;2023-07-13T07:04:22;99789.88;;;26.52;60.04
63739;BME280;68816;45.558;10.070;2023-07-13T07:06:47;99784.03;;;26.36;60.55
63739;BME280;68816;45.558;10.070;2023-07-13T07:09:13;99782.47;;;26.60;58.16
63739;BME280;68816;45.558;10.070;2023-07-13T07:11:39;99781.13;;;26.78;55.46
63739;BME280;68816;45.558;10.070;2023-07-13T07:14:04;99765.09;;;26.94;53.47
63739;BME280;68816;45.558;10.070;2023-07-13T07:16:30;99764.31;;;27.18;52.64
63739;BME280;68816;45.558;10.070;2023-07-13T07:18:56;99774.13;;;27.08;52.10
63739;BME280;68816;45.558;10.070;2023-07-13T07:21:21;99779.31;;;27.06;52.07
63739;BME280;68816;45.558;10.070;2023-07-13T07:23:48;99764.19;;;27.38;52.60
63739;BME280;68816;45.558;10.070;2023-07-13T07:26:14;99750.47;;;27.65;50.01
63739;BME280;68816;45.558;10.070;2023-07-13T07:28:40;99747.03;;;27.84;50.20
63739;BME280;68816;45.558;10.070;2023-07-13T07:31:06;99747.47;;;27.86;49.75
63739;BME280;68816;45.558;10.070;2023-07-13T07:33:33;99758.03;;;27.73;49.73
63739;BME280;68816;45.558;10.070;2023-07-13T07:35:59;99766.91;;;27.84;51.69
63739;BME280;68816;45.558;10.070;2023-07-13T07:38:25;99770.34;;;27.77;52.39
63739;BME280;68816;45.558;10.070;2023-07-13T07:40:51;99774.25;;;27.72;49.71
63739;BME280;68816;45.558;10.070;2023-07-13T07:43:17;99773.91;;;27.74;54.09
63739;BME280;68816;45.558;10.070;2023-07-13T07:45:44;99776.97;;;27.81;52.21
63739;BME280;68816;45.558;10.070;2023-07-13T07:48:10;99788.69;;;27.67;52.60
63739;BME280;68816;45.558;10.070;2023-07-13T07:50:36;99788.59;;;27.64;53.04
63739;BME280;68816;45.558;10.070;2023-07-13T07:53:02;99794.78;;;27.54;50.60
63739;BME280;68816;45.558;10.070;2023-07-13T07:55:28;99799.72;;;27.57;51.96
63739;BME280;68816;45.558;10.070;2023-07-13T07:57:56;99783.50;;;27.57;54.01
63739;BME280;68816;45.558;10.070;2023-07-13T08:00:22;99780.53;;;27.42;51.99
63739;BME280;68816;45.558;10.070;2023-07-13T08:02:48;99780.41;;;27.50;51.66
63739;BME280;68816;45.558;10.070;2023-07-13T08:05:14;99772.03;;;27.54;53.19
63739;BME280;68816;45.558;10.070;2023-07-13T08:07:40;99754.50;;;27.64;54.54
63739;BME280;68816;45.558;10.070;2023-07-13T08:10:06;99757.81;;;27.66;54.34
63739;BME280;68816;45.558;10.070;2023-07-13T08:12:39;99765.38;;;27.74;53.05
63739;BME280;68816;45.558;10.070;2023-07-13T08:15:06;99766.94;;;27.71;49.54
63739;BME280;68816;45.558;10.070;2023-07-13T08:17:34;99772.81;;;27.78;51.04
63739;BME280;68816;45.558;10.070;2023-07-13T08:20:00;99769.19;;;27.66;51.79
63739;BME280;68816;45.558;10.070;2023-07-13T08:22:26;99760.41;;;27.83;50.06
63739;BME280;68816;45.558;10.070;2023-07-13T08:24:52;99762.50;;;27.86;49.47
63739;BME280;68816;45.558;10.070;2023-07-13T08:27:25;99766.84;;;27.96;49.51
63739;BME280;68816;45.558;10.070;2023-07-13T08:29:51;99770.78;;;27.91;50.09
63739;BME280;68816;45.558;10.070;2023-07-13T08:32:18;99766.25;;;28.02;49.10
63739;BME280;68816;45.558;10.070;2023-07-13T08:34:45;99773.59;;;28.15;48.92
63739;BME280;68816;45.558;10.070;2023-07-13T08:37:10;99770.06;;;28.06;49.12
63739;BME280;68816;45.558;10.070;2023-07-13T08:39:36;99759.38;;;28.15;48.44
63739;BME280;68816;45.558;10.070;2023-07-13T08:42:07;99751.94;;;28.39;48.90
63739;BME280;68816;45.558;10.070;2023-07-13T08:47:15;99731.75;;;28.44;48.63
63739;BME280;68816;45.558;10.070;2023-07-13T08:49:42;99755.97;;;28.38;48.59
63739;BME280;68816;45.558;10.070;2023-07-13T08:52:37;99776.66;;;28.23;49.92
63739;BME280;68816;45.558;10.070;2023-07-13T08:55:12;99792.50;;;28.36;51.10
63739;BME280;68816;45.558;10.070;2023-07-13T08:57:41;99784.97;;;28.15;50.08
63739;BME280;68816;45.558;10.070;2023-07-13T09:00:11;99785.38;;;28.42;50.10
63739;BME280;68816;45.558;10.070;2023-07-13T09:02:50;99778.13;;;28.44;49.32
63739;BME280;68816;45.558;10.070;2023-07-13T09:05:33;99771.16;;;28.42;49.36
63739;BME280;68816;45.558;10.070;2023-07-13T09:10:46;99779.00;;;28.33;49.85
63739;BME280;68816;45.558;10.070;2023-07-13T09:15:59;99787.53;;;28.33;50.53
63739;BME280;68816;45.558;10.070;2023-07-13T09:18:37;99789.72;;;28.24;50.33
63739;BME280;68816;45.558;10.070;2023-07-13T09:21:13;99795.88;;;28.13;50.34
63739;BME280;68816;45.558;10.070;2023-07-13T09:23:40;99801.22;;;27.91;52.53
63739;BME280;68816;45.558;10.070;2023-07-13T09:26:10;99804.66;;;27.84;52.05
63739;BME280;68816;45.558;10.070;2023-07-13T09:28:45;99798.44;;;27.66;51.65
63739;BME280;68816;45.558;10.070;2023-07-13T09:31:15;99808.56;;;27.92;51.57
63739;BME280;68816;45.558;10.070;2023-07-13T09:33:41;99818.66;;;27.77;51.46
63739;BME280;68816;45.558;10.070;2023-07-13T09:36:22;99830.16;;;27.56;52.81
63739;BME280;68816;45.558;10.070;2023-07-13T09:38:59;99821.22;;;27.46;53.37
63739;BME280;68816;45.558;10.070;2023-07-13T09:41:51;99811.03;;;27.32;53.69
63739;BME280;68816;45.558;10.070;2023-07-13T09:44:32;99794.25;;;27.39;53.41
63739;BME280;68816;45.558;10.070;2023-07-13T09:46:59;99787.97;;;27.46;52.54
63739;BME280;68816;45.558;10.070;2023-07-13T09:49:35;99796.03;;;27.68;52.97
63739;BME280;68816;45.558;10.070;2023-07-13T09:52:07;99806.72;;;27.84;51.71
63739;BME280;68816;45.558;10.070;2023-07-13T09:54:36;99810.84;;;27.74;52.31
63739;BME280;68816;45.558;10.070;2023-07-13T09:57:11;99833.31;;;27.91;52.11
63739;BME280;68816;45.558;10.070;2023-07-13T09:59:41;99823.03;;;27.99;51.65
63739;BME280;68816;45.558;10.070;2023-07-13T10:02:40;99822.81;;;28.44;51.25
63739;BME280;68816;45.558;10.070;2023-07-13T10:05:14;99818.38;;;28.58;50.47
63739;BME280;68816;45.558;10.070;2023-07-13T10:07:44;99815.75;;;28.93;48.79
63739;BME280;68816;45.558;10.070;2023-07-13T10:10:18;99826.06;;;29.14;50.14
63739;BME280;68816;45.558;10.070;2023-07-13T10:12:45;99822.50;;;28.61;48.82
63739;BME280;68816;45.558;10.070;2023-07-13T10:15:24;99817.03;;;28.68;49.63
63739;BME280;68816;45.558;10.070;2023-07-13T10:17:54;99830.16;;;28.45;50.68
63739;BME280;68816;45.558;10.070;2023-07-13T10:20:21;99828.53;;;28.32;51.77
63739;BME280;68816;45.558;10.070;2023-07-13T10:25:32;99820.13;;;28.63;50.88
63739;BME280;68816;45.558;10.070;2023-07-13T10:28:24;99828.09;;;28.57;52.31
63739;BME280;68816;45.558;10.070;2023-07-13T10:30:52;99823.09;;;28.94;51.51
63739;BME280;68816;45.558;10.070;2023-07-13T10:33:19;99826.66;;;28.91;51.67
63739;BME280;68816;45.558;10.070;2023-07-13T10:35:47;99819.63;;;28.73;51.75
63739;BME280;68816;45.558;10.070;2023-07-13T10:38:20;99820.34;;;28.98;50.63
63739;BME280;68816;45.558;10.070;2023-07-13T10:41:03;99815.16;;;29.47;50.14
63739;BME280;68816;45.558;10.070;2023-07-13T10:43:39;99811.53;;;29.03;50.54
63739;BME280;68816;45.558;10.070;2023-07-13T10:46:10;99798.28;;;28.95;51.01
63739;BME280;68816;45.558;10.070;2023-07-13T10:48:36;99793.97;;;29.01;50.78
63739;BME280;68816;45.558;10.070;2023-07-13T10:51:05;99786.84;;;29.23;49.67
63739;BME280;68816;45.558;10.070;2023-07-13T10:53:35;99797.31;;;29.66;49.29
63739;BME280;68816;45.558;10.070;2023-07-13T10:58:42;99786.66;;;29.63;48.73
63739;BME280;68816;45.558;10.070;2023-07-13T11:01:16;99785.06;;;29.65;48.98
63739;BME280;68816;45.558;10.070;2023-07-13T11:03:53;99786.03;;;29.38;49.11
63739;BME280;68816;45.558;10.070;2023-07-13T11:08:52;99776.28;;;29.55;47.35
63739;BME280;68816;45.558;10.070;2023-07-13T11:18:52;99757.75;;;29.80;46.63
63739;BME280;68816;45.558;10.070;2023-07-13T11:21:20;99750.16;;;30.03;46.66
63739;BME280;68816;45.558;10.070;2023-07-13T11:31:55;99750.84;;;30.16;44.98
63739;BME280;68816;45.558;10.070;2023-07-13T11:34:34;99744.34;;;29.65;45.47
63739;BME280;68816;45.558;10.070;2023-07-13T11:37:01;99743.56;;;29.99;44.73
63739;BME280;68816;45.558;10.070;2023-07-13T11:39:32;99738.22;;;29.98;45.27
63739;BME280;68816;45.558;10.070;2023-07-13T11:42:05;99745.78;;;30.29;45.46
63739;BME280;68816;45.558;10.070;2023-07-13T11:44:33;99729.28;;;29.64;45.93
63739;BME280;68816;45.558;10.070;2023-07-13T11:47:10;99738.50;;;29.58;46.65
63739;BME280;68816;45.558;10.070;2023-07-13T11:49:45;99728.03;;;29.81;45.51
63739;BME280;68816;45.558;10.070;2023-07-13T11:52:18;99733.34;;;30.17;45.32
63739;BME280;68816;45.558;10.070;2023-07-13T11:54:56;99728.47;;;30.37;44.89
63739;BME280;68816;45.558;10.070;2023-07-13T11:57:44;99727.56;;;30.33;44.35
63739;BME280;68816;45.558;10.070;2023-07-13T12:00:15;99729.44;;;30.26;43.95
63739;BME280;68816;45.558;10.070;2023-07-13T12:02:47;99724.81;;;30.56;45.42
63739;BME280;68816;45.558;10.070;2023-07-13T12:05:16;99721.56;;;30.57;43.37
63739;BME280;68816;45.558;10.070;2023-07-13T12:07:47;99713.53;;;30.63;43.29
63739;BME280;68816;45.558;10.070;2023-07-13T12:10:23;99708.00;;;30.74;41.92
63739;BME280;68816;45.558;10.070;2023-07-13T12:12:55;99709.66;;;30.75;42.55
63739;BME280;68816;45.558;10.070;2023-07-13T12:15:22;99700.13;;;30.90;42.50
63739;BME280;68816;45.558;10.070;2023-07-13T12:17:49;99695.75;;;30.73;42.65
63739;BME280;68816;45.558;10.070;2023-07-13T12:20:24;99698.94;;;30.68;43.81
63739;BME280;68816;45.558;10.070;2023-07-13T12:22:51;99699.09;;;30.56;43.10
63739;BME280;68816;45.558;10.070;2023-07-13T12:25:18;99702.47;;;30.42;43.98
63739;BME280;68816;45.558;10.070;2023-07-13T12:27:50;99720.94;;;30.68;43.13
63739;BME280;68816;45.558;10.070;2023-07-13T12:30:31;99714.16;;;30.76;42.78
63739;BME280;68816;45.558;10.070;2023-07-13T12:33:08;99700.13;;;30.90;43.08
63739;BME280;68816;45.558;10.070;2023-07-13T12:35:49;99709.84;;;30.63;43.03
63739;BME280;68816;45.558;10.070;2023-07-13T12:38:16;99708.59;;;30.64;43.17
63739;BME280;68816;45.558;10.070;2023-07-13T12:40:42;99706.94;;;31.27;43.58
63739;BME280;68816;45.558;10.070;2023-07-13T12:43:14;99702.19;;;31.12;43.38
63739;BME280;68816;45.558;10.070;2023-07-13T12:45:59;99707.03;;;31.08;42.68
63739;BME280;68816;45.558;10.070;2023-07-13T12:48:25;99696.53;;;31.65;44.20
63739;BME280;68816;45.558;10.070;2023-07-13T12:50:53;99703.09;;;31.95;42.05
63739;BME280;68816;45.558;10.070;2023-07-13T12:53:23;99706.25;;;32.16;40.66
63739;BME280;68816;45.558;10.070;2023-07-13T12:55:57;99713.03;;;32.35;40.62
63739;BME280;68816;45.558;10.070;2023-07-13T12:58:30;99714.75;;;32.76;39.32
63739;BME280;68816;45.558;10.070;2023-07-13T13:00:58;99721.38;;;32.50;40.35
63739;BME280;68816;45.558;10.070;2023-07-13T13:03:30;99711.56;;;32.48;39.55
63739;BME280;68816;45.558;10.070;2023-07-13T13:06:06;99717.75;;;31.64;39.36
63739;BME280;68816;45.558;10.070;2023-07-13T13:08:34;99727.69;;;32.30;39.24
63739;BME280;68816;45.558;10.070;2023-07-13T13:11:03;99734.38;;;32.41;38.09
63739;BME280;68816;45.558;10.070;2023-07-13T13:13:29;99748.16;;;32.32;38.18
63739;BME280;68816;45.558;10.070;2023-07-13T13:15:54;99763.47;;;32.46;38.49
63739;BME280;68816;45.558;10.070;2023-07-13T13:18:23;99766.16;;;32.99;38.09
63739;BME280;68816;45.558;10.070;2023-07-13T13:20:50;99767.06;;;33.07;37.62
63739;BME280;68816;45.558;10.070;2023-07-13T13:23:18;99763.09;;;32.48;37.42
63739;BME280;68816;45.558;10.070;2023-07-13T13:25:49;99740.91;;;32.41;37.13
63739;BME280;68816;45.558;10.070;2023-07-13T13:28:18;99724.19;;;32.43;39.11
63739;BME280;68816;45.558;10.070;2023-07-13T13:30:45;99718.84;;;32.42;37.95